VOZ677 YMML-YPPH
Flight info
| Callsign | VOZ677 |
|---|---|
| Flight time | N/A |
| Altitude | 34000 |
| Route | CRENA3/27 CRENA Q158 KABLI |
| Aircraft | B738/M-SDE2E3FGHIRWXY/LB1 |
Departure
| Time | 2026-05-08 06:00 |
|---|---|
| Airport | Melbourne Airport (YMML) |
Arrival
| Time | N/A |
|---|---|
| Airport | Perth International Airport (YPPH) |
| Time | Latitude | Longitude | Altitude | Speed | Heading |
|---|---|---|---|---|---|
| 2026-05-08 05:39 | -37.67132 | 144.84586 | 387 ft | 0 kts | 352° |
| 2026-05-08 05:51 | -37.67148 | 144.84589 | 387 ft | 2 kts | 351° |
| 2026-05-08 05:51 | -37.67165 | 144.84592 | 386 ft | 2 kts | 354° |
| 2026-05-08 05:51 | -37.67181 | 144.84594 | 386 ft | 2 kts | 348° |
| 2026-05-08 05:51 | -37.67197 | 144.84601 | 386 ft | 2 kts | 313° |
| 2026-05-08 05:52 | -37.67201 | 144.84608 | 386 ft | 0 kts | 267° |
| 2026-05-08 05:54 | -37.67204 | 144.84583 | 385 ft | 6 kts | 263° |
| 2026-05-08 05:55 | -37.67210 | 144.84521 | 384 ft | 10 kts | 264° |
| 2026-05-08 05:55 | -37.67197 | 144.84417 | 383 ft | 13 kts | 263° |
| 2026-05-08 05:55 | -37.67204 | 144.84309 | 381 ft | 12 kts | 281° |
| 2026-05-08 05:55 | -37.67136 | 144.84256 | 382 ft | 15 kts | 354° |
| 2026-05-08 05:56 | -37.67026 | 144.84237 | 384 ft | 18 kts | 352° |
| 2026-05-08 05:56 | -37.66907 | 144.84215 | 387 ft | 17 kts | 352° |
| 2026-05-08 05:56 | -37.66793 | 144.84192 | 391 ft | 16 kts | 351° |
| 2026-05-08 05:56 | -37.66683 | 144.84173 | 395 ft | 16 kts | 352° |
| 2026-05-08 05:57 | -37.66580 | 144.84184 | 399 ft | 15 kts | 33° |
| 2026-05-08 05:57 | -37.66529 | 144.84294 | 402 ft | 17 kts | 83° |
| 2026-05-08 05:57 | -37.66512 | 144.84444 | 403 ft | 18 kts | 81° |
| 2026-05-08 05:57 | -37.66493 | 144.84597 | 405 ft | 17 kts | 82° |
| 2026-05-08 05:58 | -37.66470 | 144.84725 | 407 ft | 14 kts | 58° |
| 2026-05-08 05:58 | -37.66388 | 144.84782 | 410 ft | 13 kts | 4° |
| 2026-05-08 05:58 | -37.66338 | 144.84786 | 411 ft | 5 kts | 3° |
| 2026-05-08 05:58 | -37.66285 | 144.84790 | 412 ft | 13 kts | 0° |
| 2026-05-08 05:59 | -37.66221 | 144.84727 | 412 ft | 12 kts | 268° |
| 2026-05-08 05:59 | -37.66215 | 144.84626 | 410 ft | 11 kts | 275° |
| 2026-05-08 05:59 | -37.66199 | 144.84350 | 409 ft | 67 kts | 274° |
| 2026-05-08 05:59 | -37.66147 | 144.83454 | 414 ft | 136 kts | 274° |
| 2026-05-08 06:00 | -37.66057 | 144.82061 | 646 ft | 173 kts | 273° |
| 2026-05-08 06:00 | -37.65939 | 144.80465 | 1353 ft | 190 kts | 270° |
| 2026-05-08 06:00 | -37.65840 | 144.78817 | 2255 ft | 191 kts | 268° |
| 2026-05-08 06:00 | -37.65755 | 144.77134 | 2787 ft | 199 kts | 268° |
| 2026-05-08 06:01 | -37.65660 | 144.75364 | 3319 ft | 203 kts | 268° |
| 2026-05-08 06:01 | -37.65560 | 144.73584 | 3959 ft | 204 kts | 268° |
| 2026-05-08 06:01 | -37.65457 | 144.71788 | 4574 ft | 207 kts | 268° |
| 2026-05-08 06:01 | -37.65352 | 144.69888 | 4894 ft | 230 kts | 268° |
| 2026-05-08 06:02 | -37.65231 | 144.67782 | 5276 ft | 248 kts | 268° |
| 2026-05-08 06:02 | -37.65094 | 144.65575 | 5931 ft | 255 kts | 269° |